createdAt,value
2022-10-18T00:00:54.120Z,19.25
2022-10-18T00:03:56.994Z,13.25
2022-10-18T00:07:00.157Z,22.23
2022-10-18T00:10:04.583Z,15.32
2022-10-18T00:13:07.042Z,17.00
2022-10-18T00:16:15.445Z,14.43
2022-10-18T00:19:18.083Z,16.27
2022-10-18T00:22:23.655Z,14.17
2022-10-18T00:25:26.135Z,19.05
2022-10-18T00:28:29.040Z,16.27
2022-10-18T00:31:33.923Z,17.58
2022-10-18T00:34:38.399Z,22.10
2022-10-18T00:37:40.984Z,18.57
2022-10-18T00:40:43.994Z,17.50
2022-10-18T00:43:52.761Z,18.42
2022-10-18T00:47:03.375Z,16.77
2022-10-18T00:50:07.333Z,16.15
2022-10-18T00:53:14.704Z,13.87
2022-10-18T00:56:17.559Z,16.80
2022-10-18T00:59:20.916Z,17.30
2022-10-18T01:02:24.157Z,19.58
2022-10-18T01:05:27.184Z,17.58
2022-10-18T01:08:32.966Z,20.77
2022-10-18T01:11:54.049Z,19.10
2022-10-18T01:15:27.144Z,18.42
2022-10-18T01:18:43.728Z,16.75
2022-10-18T01:21:55.458Z,16.73
2022-10-18T01:25:08.221Z,15.77
2022-10-18T01:28:30.710Z,18.65
2022-10-18T01:31:38.598Z,18.30
2022-10-18T01:34:42.689Z,18.73
2022-10-18T01:37:47.671Z,20.33
2022-10-18T01:40:50.837Z,14.47
2022-10-18T01:43:57.537Z,15.95
2022-10-18T01:47:00.128Z,19.77
2022-10-18T01:50:05.851Z,21.05
2022-10-18T01:53:22.262Z,16.87
2022-10-18T01:56:35.802Z,18.40
2022-10-18T01:59:44.117Z,19.65
2022-10-18T02:03:15.180Z,19.10
2022-10-18T02:06:27.277Z,15.77
2022-10-18T02:09:38.576Z,18.58
2022-10-18T02:12:43.666Z,16.93
2022-10-18T02:15:52.056Z,23.00
2022-10-18T02:18:59.648Z,17.52
2022-10-18T02:22:02.290Z,17.48
2022-10-18T02:25:09.904Z,20.23
2022-10-18T02:28:12.708Z,18.23
2022-10-18T02:31:20.430Z,16.40
2022-10-18T02:34:24.913Z,17.75
2022-10-18T02:37:35.308Z,18.20
2022-10-18T02:40:37.825Z,16.12
2022-10-18T02:43:40.631Z,17.93
2022-10-18T02:46:43.165Z,15.80
2022-10-18T02:49:45.974Z,15.32
2022-10-18T02:52:48.455Z,16.08
2022-10-18T02:55:51.195Z,21.33
2022-10-18T02:58:53.690Z,15.27
2022-10-18T03:01:59.058Z,17.50
2022-10-18T03:05:01.583Z,17.35
2022-10-18T03:08:04.753Z,15.18
2022-10-18T03:11:07.330Z,15.25
2022-10-18T03:14:10.164Z,15.80
2022-10-18T03:17:12.875Z,18.98
2022-10-18T03:20:15.912Z,14.57
2022-10-18T03:23:18.392Z,15.20
2022-10-18T03:26:21.688Z,18.65
2022-10-18T03:29:24.153Z,17.40
2022-10-18T03:32:26.896Z,14.25
2022-10-18T03:35:29.440Z,21.77
2022-10-18T03:38:32.761Z,15.43
2022-10-18T03:41:35.321Z,16.42
2022-10-18T03:44:38.046Z,14.77
2022-10-18T03:47:40.520Z,15.43
2022-10-18T03:50:43.830Z,16.30
2022-10-18T03:53:46.544Z,17.50
2022-10-18T03:56:49.263Z,14.70
2022-10-18T03:59:51.760Z,15.73
2022-10-18T04:02:55.974Z,13.45
2022-10-18T04:06:00.759Z,13.43
2022-10-18T04:09:06.525Z,14.38
2022-10-18T04:12:12.254Z,12.32
2022-10-18T04:15:14.749Z,17.43
2022-10-18T04:18:17.624Z,13.23
2022-10-18T04:21:20.343Z,13.85
2022-10-18T04:24:23.123Z,13.32
2022-10-18T04:27:25.743Z,15.82
2022-10-18T04:30:28.852Z,14.07
2022-10-18T04:33:31.498Z,16.58
2022-10-18T04:36:34.321Z,14.48
2022-10-18T04:39:36.763Z,16.10
2022-10-18T04:42:39.853Z,15.07
2022-10-18T04:45:45.545Z,15.83
2022-10-18T04:48:48.458Z,15.10
2022-10-18T04:51:51.071Z,20.25
2022-10-18T04:54:53.822Z,15.07
2022-10-18T04:57:56.240Z,15.45
2022-10-18T05:00:59.775Z,17.67
2022-10-18T05:04:02.479Z,14.45
2022-10-18T05:07:06.648Z,17.48
2022-10-18T05:10:09.750Z,14.95
2022-10-18T05:13:12.663Z,16.95
2022-10-18T05:16:16.081Z,17.30
2022-10-18T05:19:18.910Z,15.05
2022-10-18T05:22:21.421Z,15.38
2022-10-18T05:25:24.722Z,15.68
2022-10-18T05:28:39.613Z,23.45
2022-10-18T05:31:43.566Z,15.23
2022-10-18T05:34:46.142Z,17.73
2022-10-18T05:37:48.949Z,17.23
2022-10-18T05:40:53.149Z,14.27
2022-10-18T05:43:55.936Z,16.50
2022-10-18T05:46:58.373Z,16.17
2022-10-18T05:50:01.246Z,15.80
2022-10-18T05:53:12.581Z,15.77
2022-10-18T05:56:21.220Z,20.80
2022-10-18T05:59:23.882Z,19.65
2022-10-18T06:02:26.713Z,14.40
2022-10-18T06:05:29.528Z,17.52
2022-10-18T06:08:32.562Z,13.85
2022-10-18T06:11:36.463Z,15.40
2022-10-18T06:14:38.901Z,15.18
2022-10-18T06:17:41.646Z,17.97
2022-10-18T06:20:44.749Z,16.52
2022-10-18T06:23:56.594Z,16.08
2022-10-18T06:26:59.134Z,15.02
2022-10-18T06:30:02.215Z,18.20
2022-10-18T06:33:05.512Z,17.20
2022-10-18T06:36:11.806Z,17.55
2022-10-18T06:39:14.319Z,19.52
2022-10-18T06:42:19.136Z,15.45
2022-10-18T06:45:24.343Z,18.27
2022-10-18T06:48:27.074Z,17.67
2022-10-18T06:51:29.594Z,16.42
2022-10-18T06:54:32.323Z,13.82
2022-10-18T06:57:34.749Z,14.80
2022-10-18T07:00:37.591Z,15.40
2022-10-18T07:03:40.125Z,15.83
2022-10-18T07:06:42.896Z,15.30
2022-10-18T07:09:46.137Z,15.77
2022-10-18T07:12:48.961Z,14.18
2022-10-18T07:16:14.267Z,15.48
2022-10-18T07:19:20.339Z,13.73
2022-10-18T07:22:24.996Z,14.35
2022-10-18T07:25:31.436Z,13.23
2022-10-18T07:28:34.736Z,13.73
2022-10-18T07:31:41.048Z,14.40
2022-10-18T07:34:43.611Z,15.60
2022-10-18T07:37:46.376Z,13.98
2022-10-18T07:40:49.050Z,15.73
2022-10-18T07:43:52.982Z,13.05
2022-10-18T07:46:55.603Z,14.30
2022-10-18T07:50:02.419Z,17.23
2022-10-18T07:53:05.101Z,16.27
2022-10-18T07:56:16.720Z,13.62
2022-10-18T07:59:19.264Z,11.48
2022-10-18T08:02:23.474Z,13.43
2022-10-18T08:05:27.554Z,11.50
2022-10-18T08:08:30.485Z,12.07
2022-10-18T08:11:33.799Z,12.85
2022-10-18T08:14:36.284Z,13.98
2022-10-18T08:17:39.179Z,10.35
2022-10-18T08:20:45.738Z,10.47
2022-10-18T08:23:48.797Z,13.65
2022-10-18T08:26:51.250Z,14.50
2022-10-18T08:29:54.209Z,15.15
2022-10-18T08:32:56.667Z,13.15
2022-10-18T08:36:01.074Z,13.53
2022-10-18T08:39:03.518Z,14.20
2022-10-18T08:42:17.598Z,9.25
2022-10-18T08:45:37.338Z,13.77
2022-10-18T08:48:49.219Z,11.65
2022-10-18T08:51:52.311Z,12.73
2022-10-18T08:55:13.751Z,9.63
2022-10-18T08:58:20.961Z,10.55
2022-10-18T09:01:52.938Z,11.90
2022-10-18T09:05:46.611Z,11.48
2022-10-18T09:09:20.504Z,9.30
2022-10-18T09:12:40.178Z,13.00
2022-10-18T09:15:51.805Z,9.70
2022-10-18T09:19:03.251Z,9.48
2022-10-18T09:22:14.850Z,12.88
2022-10-18T09:25:19.017Z,8.43
2022-10-18T09:28:40.735Z,10.82
2022-10-18T09:31:56.861Z,8.27
2022-10-18T09:35:14.349Z,9.48
2022-10-18T09:38:20.723Z,12.63
2022-10-18T09:41:26.948Z,8.10
2022-10-18T09:44:36.237Z,9.05
2022-10-18T09:47:45.727Z,7.30
2022-10-18T09:50:55.278Z,7.53
2022-10-18T09:54:29.360Z,9.05
2022-10-18T09:57:41.547Z,7.70
2022-10-18T10:00:48.622Z,8.95
2022-10-18T10:03:51.841Z,8.30
2022-10-18T10:06:56.157Z,9.98
2022-10-18T10:10:25.489Z,6.62
2022-10-18T10:13:28.019Z,7.53
2022-10-18T10:16:30.702Z,8.25
2022-10-18T10:19:35.803Z,8.68
2022-10-18T10:22:40.234Z,6.78
2022-10-18T10:25:43.297Z,6.35
2022-10-18T10:28:49.971Z,7.43
2022-10-18T10:32:03.552Z,6.53
2022-10-18T10:35:52.676Z,7.20
2022-10-18T10:39:19.494Z,6.50
2022-10-18T10:42:22.357Z,6.60
2022-10-18T10:45:26.314Z,6.13
2022-10-18T10:48:33.569Z,8.75
2022-10-18T10:51:38.632Z,6.55
2022-10-18T10:54:46.486Z,7.07
2022-10-18T10:57:52.999Z,8.23
2022-10-18T11:00:57.528Z,7.40
2022-10-18T11:04:04.060Z,7.47
2022-10-18T11:07:30.325Z,8.70
2022-10-18T11:10:35.269Z,7.55
2022-10-18T11:14:01.588Z,7.03
2022-10-18T11:17:35.948Z,6.70
2022-10-18T11:20:48.126Z,8.40
2022-10-18T11:23:50.818Z,11.30
2022-10-18T11:27:08.778Z,7.80
2022-10-18T11:30:44.262Z,11.82
2022-10-18T11:34:10.289Z,10.17
2022-10-18T11:38:01.120Z,8.18
2022-10-18T11:41:22.522Z,6.37
2022-10-18T11:44:34.147Z,8.40
2022-10-18T11:47:45.025Z,7.85
2022-10-18T11:51:04.782Z,7.53
2022-10-18T11:54:20.281Z,7.47
2022-10-18T11:57:41.792Z,8.82
2022-10-18T12:00:57.357Z,8.30
2022-10-18T12:04:24.023Z,8.57
2022-10-18T12:07:35.057Z,7.57
2022-10-18T12:10:53.016Z,6.72
2022-10-18T12:14:10.831Z,10.77
2022-10-18T12:17:51.425Z,9.30
2022-10-18T12:20:56.659Z,11.85
2022-10-18T12:24:09.148Z,7.40
2022-10-18T12:27:13.922Z,11.45
2022-10-18T12:30:35.075Z,9.13
2022-10-18T12:33:45.245Z,9.55
2022-10-18T12:36:56.501Z,7.40
2022-10-18T12:40:11.402Z,6.80
2022-10-18T12:43:21.780Z,9.32
2022-10-18T12:46:24.378Z,8.00
2022-10-18T12:49:33.266Z,9.10
2022-10-18T12:52:37.153Z,7.80
2022-10-18T12:58:49.737Z,7.82
2022-10-18T13:01:55.418Z,6.70
2022-10-18T13:08:27.797Z,6.93
2022-10-18T13:11:33.359Z,8.13
2022-10-18T13:14:49.387Z,7.95
2022-10-18T13:18:16.219Z,10.43
2022-10-18T13:21:28.063Z,6.57
2022-10-18T13:25:13.963Z,6.57
2022-10-18T13:28:44.853Z,7.23
2022-10-18T13:31:55.261Z,6.72
2022-10-18T13:34:58.075Z,8.27
2022-10-18T13:38:00.578Z,6.40
2022-10-18T13:41:07.760Z,7.25
2022-10-18T13:44:22.524Z,6.27
2022-10-18T13:47:33.843Z,7.85
2022-10-18T13:50:38.281Z,8.32
2022-10-18T13:53:57.264Z,11.32
2022-10-18T13:57:15.495Z,8.35
2022-10-18T14:00:22.070Z,6.93
2022-10-18T14:07:02.381Z,8.25
2022-10-18T14:10:10.339Z,7.40
2022-10-18T14:13:21.859Z,8.00
2022-10-18T14:16:28.101Z,10.00
2022-10-18T14:19:41.150Z,9.13
2022-10-18T14:22:48.784Z,10.45
2022-10-18T14:25:51.356Z,8.43
2022-10-18T14:29:07.774Z,9.68
2022-10-18T14:32:18.640Z,7.33
2022-10-18T14:35:32.999Z,6.65
2022-10-18T14:38:37.935Z,7.55
2022-10-18T14:41:52.414Z,8.85
2022-10-18T14:44:56.439Z,7.30
2022-10-18T14:48:15.694Z,7.47
2022-10-18T14:51:18.997Z,10.00
2022-10-18T14:54:31.932Z,9.73
2022-10-18T14:57:36.631Z,11.50
2022-10-18T15:00:41.099Z,8.52
2022-10-18T15:03:45.584Z,9.90
2022-10-18T15:06:48.952Z,8.55
2022-10-18T15:09:51.606Z,8.88
2022-10-18T15:13:09.167Z,14.82
2022-10-18T15:16:17.583Z,11.65
2022-10-18T15:19:34.237Z,10.80
2022-10-18T15:22:36.997Z,7.68
2022-10-18T15:25:39.828Z,9.45
2022-10-18T15:28:52.832Z,7.43
2022-10-18T15:31:56.486Z,11.88
2022-10-18T15:35:13.550Z,10.60
2022-10-18T15:38:24.736Z,9.25
2022-10-18T15:41:38.487Z,11.18
2022-10-18T15:44:49.497Z,10.45
2022-10-18T15:48:02.879Z,7.30
2022-10-18T15:51:07.859Z,8.23
2022-10-18T15:54:17.926Z,12.15
2022-10-18T15:57:20.812Z,8.98
2022-10-18T16:00:25.316Z,6.65
2022-10-18T16:03:28.718Z,6.05
2022-10-18T16:06:32.368Z,7.13
2022-10-18T16:09:35.286Z,8.15
2022-10-18T16:12:37.810Z,6.72
2022-10-18T16:15:40.771Z,8.60
2022-10-18T16:18:43.279Z,8.77
2022-10-18T16:21:46.050Z,9.53
2022-10-18T16:24:48.458Z,11.82
2022-10-18T16:27:51.200Z,11.10
2022-10-18T16:30:59.521Z,13.02
2022-10-18T16:34:02.691Z,15.40
2022-10-18T16:37:05.138Z,17.27
2022-10-18T16:40:36.527Z,17.50
2022-10-18T16:43:45.508Z,19.08
2022-10-18T16:46:51.076Z,12.70
2022-10-18T16:49:56.431Z,12.23
2022-10-18T16:52:59.165Z,10.40
2022-10-18T16:56:02.815Z,10.95
2022-10-18T16:59:05.879Z,9.82
2022-10-18T17:02:09.296Z,10.25
2022-10-18T17:05:12.106Z,11.40
2022-10-18T17:08:21.918Z,12.87
2022-10-18T17:11:27.257Z,13.07
2022-10-18T17:14:29.812Z,15.48
2022-10-18T17:17:32.763Z,12.05
2022-10-18T17:20:36.556Z,12.98
2022-10-18T17:23:39.454Z,14.33
2022-10-18T17:26:41.937Z,9.10
2022-10-18T17:29:44.722Z,11.40
2022-10-18T17:32:47.215Z,10.90
2022-10-18T17:35:49.981Z,9.55
2022-10-18T17:38:55.752Z,8.50
2022-10-18T17:41:58.819Z,10.30
2022-10-18T17:45:01.314Z,10.27
2022-10-18T17:48:04.133Z,9.85
2022-10-18T17:51:12.550Z,8.85
2022-10-18T17:54:15.329Z,11.27
2022-10-18T17:57:18.180Z,8.15
2022-10-18T18:00:24.568Z,11.32
2022-10-18T18:03:27.482Z,10.10
2022-10-18T18:06:34.059Z,9.77
2022-10-18T18:09:36.865Z,7.20
2022-10-18T18:12:39.356Z,8.45
2022-10-18T18:15:42.114Z,9.73
2022-10-18T18:18:45.350Z,8.55
2022-10-18T18:21:48.539Z,10.93
2022-10-18T18:24:51.081Z,8.30
2022-10-18T18:27:54.419Z,9.50
2022-10-18T18:31:07.152Z,8.38
2022-10-18T18:34:10.513Z,10.88
2022-10-18T18:37:12.950Z,9.40
2022-10-18T18:40:16.950Z,9.70
2022-10-18T18:43:23.239Z,9.63
2022-10-18T18:46:28.083Z,7.53
2022-10-18T18:49:31.499Z,11.15
2022-10-18T18:52:34.696Z,8.85
2022-10-18T18:55:39.764Z,10.17
2022-10-18T18:58:44.178Z,8.00
2022-10-18T19:01:46.738Z,9.98
2022-10-18T19:04:50.756Z,10.07
2022-10-18T19:07:53.373Z,11.52
2022-10-18T19:10:57.678Z,12.27
2022-10-18T19:14:01.375Z,12.93
2022-10-18T19:17:07.141Z,11.18
2022-10-18T19:20:12.699Z,8.55
2022-10-18T19:23:15.794Z,10.90
2022-10-18T19:26:37.456Z,8.23
2022-10-18T19:29:43.878Z,12.88
2022-10-18T19:32:47.733Z,11.60
2022-10-18T19:35:50.901Z,10.60
2022-10-18T19:38:53.427Z,10.50
2022-10-18T19:41:58.554Z,9.57
2022-10-18T19:45:01.046Z,10.07
2022-10-18T19:48:04.118Z,10.35
2022-10-18T19:51:09.362Z,12.57
2022-10-18T19:54:13.446Z,9.70
2022-10-18T19:57:15.892Z,8.63
2022-10-18T20:00:19.681Z,10.65
2022-10-18T20:03:23.658Z,12.00
2022-10-18T20:06:26.524Z,11.20
2022-10-18T20:09:29.782Z,11.75
2022-10-18T20:12:32.652Z,12.57
2022-10-18T20:15:35.672Z,9.80
2022-10-18T20:18:38.713Z,9.68
2022-10-18T20:21:41.547Z,10.93
2022-10-18T20:24:44.193Z,10.43
2022-10-18T20:27:47.003Z,11.63
2022-10-18T20:31:03.461Z,15.55
2022-10-18T20:34:08.533Z,17.05
2022-10-18T20:37:11.035Z,10.85
2022-10-18T20:40:14.562Z,13.20
2022-10-18T20:43:17.086Z,12.87
2022-10-18T20:46:20.618Z,11.93
2022-10-18T20:49:23.266Z,13.57
2022-10-18T20:52:26.070Z,11.35
2022-10-18T20:55:29.099Z,14.98
2022-10-18T20:58:32.537Z,15.30
2022-10-18T21:01:36.070Z,10.93
2022-10-18T21:04:43.324Z,9.27
2022-10-18T21:07:45.906Z,14.77
2022-10-18T21:10:49.889Z,12.07
2022-10-18T21:13:53.941Z,14.83
2022-10-18T21:16:56.838Z,12.93
2022-10-18T21:20:01.001Z,13.00
2022-10-18T21:23:03.714Z,11.27
2022-10-18T21:26:06.807Z,9.63
2022-10-18T21:29:10.781Z,11.83
2022-10-18T21:32:13.406Z,9.20
2022-10-18T21:35:16.235Z,11.57
2022-10-18T21:38:18.837Z,11.12
2022-10-18T21:41:22.922Z,9.93
2022-10-18T21:44:25.546Z,11.53
2022-10-18T21:47:28.362Z,11.95
2022-10-18T21:50:31.225Z,10.68
2022-10-18T21:53:34.872Z,16.52
2022-10-18T21:56:37.383Z,16.65
2022-10-18T21:59:40.182Z,16.13
2022-10-18T22:02:42.777Z,15.68
2022-10-18T22:05:45.558Z,13.20
2022-10-18T22:08:51.030Z,14.35
2022-10-18T22:11:53.930Z,15.75
2022-10-18T22:14:56.531Z,14.60
2022-10-18T22:17:59.352Z,14.68
2022-10-18T22:21:05.918Z,17.87
2022-10-18T22:24:09.753Z,14.10
2022-10-18T22:27:12.227Z,14.07
2022-10-18T22:30:15.275Z,13.33
2022-10-18T22:33:18.133Z,12.23
2022-10-18T22:36:21.431Z,13.82
2022-10-18T22:39:24.674Z,10.68
2022-10-18T22:42:27.525Z,11.27
2022-10-18T22:45:30.061Z,9.97
2022-10-18T22:48:33.339Z,15.35
2022-10-18T22:51:39.581Z,14.73
2022-10-18T22:54:42.413Z,11.02
2022-10-18T22:57:44.901Z,12.07
2022-10-18T23:00:48.649Z,17.17
2022-10-18T23:03:55.743Z,10.82
2022-10-18T23:06:58.727Z,12.20
2022-10-18T23:10:01.283Z,13.52
2022-10-18T23:13:05.138Z,12.48
2022-10-18T23:16:08.165Z,14.50
2022-10-18T23:19:15.466Z,11.07
2022-10-18T23:22:21.223Z,12.45
2022-10-18T23:25:24.029Z,14.63
2022-10-18T23:28:26.661Z,12.73
2022-10-18T23:31:32.065Z,15.60
2022-10-18T23:34:34.617Z,14.70
2022-10-18T23:37:37.673Z,10.68
2022-10-18T23:40:42.054Z,13.18
2022-10-18T23:43:47.335Z,12.35
2022-10-18T23:46:49.837Z,10.97
2022-10-18T23:49:55.567Z,13.27
2022-10-18T23:52:57.959Z,14.00
2022-10-18T23:56:03.212Z,10.43
2022-10-18T23:59:05.709Z,12.85
